Time;durP1;ratioP1;P1;durP2;ratioP2;P2;SDS_P1;SDS_P2;PMS_P1;PMS_P2;Temp;Humidity;BMP_temperature;BMP_pressure;BME280_temperature;BME280_humidity;BME280_pressure;Samples;Min_cycle;Max_cycle;Signal;HPM_P1;HPM_P2
2023/09/01 00:01:57;;;;;;;8.17;4.70;;;15.00;90.90;;;14.72;86.77;97848.47;5089354;28;20451;-70
2023/09/01 00:04:25;;;;;;;7.07;4.73;;;15.00;91.40;;;14.71;88.36;97850.34;5090037;28;21025;-70
2023/09/01 00:06:52;;;;;;;6.13;5.30;;;15.00;92.10;;;14.60;88.72;97856.63;5088486;28;20444;-71
2023/09/01 00:09:19;;;;;;;6.73;5.03;;;14.90;92.10;;;14.49;88.43;97849.41;5090218;28;20929;-70
2023/09/01 00:11:46;;;;;;;5.70;4.50;;;14.80;92.10;;;14.45;89.84;97860.75;5088789;28;20501;-71
2023/09/01 00:14:14;;;;;;;5.97;4.73;;;14.70;92.60;;;14.41;91.53;97848.72;5090458;28;20446;-70
2023/09/01 00:16:42;;;;;;;7.90;4.97;;;14.70;93.80;;;14.40;91.73;97859.81;5090321;28;20453;-71
2023/09/01 00:19:09;;;;;;;6.90;4.53;;;14.60;93.90;;;13.71;91.98;97780.03;5080909;28;20457;-71
2023/09/01 00:21:36;;;;;;;5.60;5.00;;;14.50;94.10;;;14.21;92.72;97853.78;5089707;28;20524;-70
2023/09/01 00:24:04;;;;;;;8.03;4.87;;;14.40;94.20;;;14.14;93.13;97852.03;5083094;28;20803;-69
2023/09/01 00:26:31;;;;;;;6.20;4.30;;;14.40;94.90;;;14.14;94.24;97851.22;5089949;28;20947;-69
2023/09/01 00:28:58;;;;;;;7.07;5.50;;;14.40;95.70;;;14.11;95.00;97847.09;5090167;28;20513;-70
2023/09/01 00:31:27;;;;;;;8.00;4.70;;;14.40;96.30;;;14.17;94.77;97846.09;5094860;28;20496;-70
2023/09/01 00:33:54;;;;;;;6.33;5.73;;;14.40;96.20;;;14.25;95.17;97853.03;5090127;28;20455;-71
2023/09/01 00:36:21;;;;;;;8.90;6.07;;;14.40;97.20;;;14.21;95.95;97846.44;5090186;28;20448;-71
2023/09/01 00:38:49;;;;;;;8.50;5.43;;;14.40;97.30;;;14.32;95.62;97847.44;5089982;28;20977;-69
2023/09/01 00:41:16;;;;;;;6.20;5.60;;;14.40;97.70;;;14.30;95.37;97846.88;5096307;28;20505;-69
2023/09/01 00:43:43;;;;;;;7.40;5.20;;;14.40;97.30;;;14.17;95.94;97842.56;5088291;28;20464;-71
2023/09/01 00:46:10;;;;;;;5.73;4.70;;;14.40;97.30;;;14.09;97.34;97848.38;5090149;28;20447;-68
2023/09/01 00:48:47;;;;;;;5.50;4.97;;;14.40;98.00;;;14.20;97.22;97850.22;5090062;28;20883;-70
2023/09/01 00:51:18;;;;;;;7.50;5.57;;;14.40;98.30;;;13.99;97.78;97835.44;5093477;28;20455;-72
2023/09/01 00:53:45;;;;;;;7.63;5.13;;;14.30;98.40;;;14.02;99.55;97843.94;5091548;28;20447;-70
2023/09/01 00:56:13;;;;;;;8.00;5.43;;;14.30;99.70;;;13.95;100.00;97847.84;5092307;28;20447;-69
2023/09/01 00:58:40;;;;;;;8.93;4.97;;;14.30;99.90;;;13.72;100.00;97808.84;5091569;28;20455;-70
2023/09/01 01:01:07;;;;;;;7.30;5.80;;;14.20;99.90;;;14.08;99.11;97844.84;5092079;28;20515;-70
2023/09/01 01:03:35;;;;;;;6.90;6.03;;;14.20;99.90;;;13.97;99.68;97848.44;5089193;28;21242;-70
2023/09/01 01:06:19;;;;;;;8.00;5.23;;;14.20;99.90;;;13.86;100.00;97850.94;5108707;28;20967;-69
2023/09/01 01:09:01;;;;;;;9.10;6.50;;;14.20;99.90;;;13.83;100.00;97851.44;5092091;28;20932;-70
2023/09/01 01:11:37;;;;;;;6.77;6.07;;;14.10;99.90;;;13.70;100.00;97846.25;5092355;28;20512;-69
2023/09/01 01:14:12;;;;;;;8.30;5.53;;;14.00;99.90;;;13.72;100.00;97833.28;5088312;28;20489;-70
2023/09/01 01:16:40;;;;;;;9.53;6.40;;;14.00;99.90;;;13.62;100.00;97831.19;5089345;28;20451;-69
2023/09/01 01:19:27;;;;;;;9.53;6.83;;;13.90;99.90;;;13.59;100.00;97829.78;5091961;28;20641;-69
2023/09/01 01:22:00;;;;;;;9.30;6.17;;;13.90;99.90;;;13.59;100.00;97829.78;5102838;28;20452;-69
2023/09/01 01:24:30;;;;;;;8.17;6.20;;;13.80;99.90;;;13.78;100.00;97826.91;5091615;28;20979;-70
2023/09/01 01:26:57;;;;;;;7.37;6.17;;;13.90;99.90;;;13.73;100.00;97829.53;5093016;28;20479;-70
2023/09/01 01:29:25;;;;;;;7.00;5.53;;;14.00;99.90;;;13.73;100.00;97829.53;5093100;28;20468;-70
2023/09/01 01:31:53;;;;;;;8.33;6.23;;;14.00;99.90;;;13.69;100.00;97829.16;5096671;28;20443;-69
2023/09/01 01:34:30;;;;;;;9.50;6.10;;;13.90;99.90;;;13.11;100.00;97738.66;5092828;28;20915;-70
2023/09/01 01:37:07;;;;;;;9.83;6.13;;;14.00;99.90;;;13.55;100.00;97816.94;5086628;28;20461;-70
2023/09/01 01:39:37;;;;;;;7.27;6.50;;;13.90;99.90;;;13.66;100.00;97818.78;5087569;28;20443;-70
2023/09/01 01:42:09;;;;;;;6.97;6.30;;;14.00;99.90;;;13.57;100.00;97814.78;5092254;28;20448;-69
2023/09/01 01:44:40;;;;;;;9.00;6.57;;;13.90;99.90;;;13.59;100.00;97808.06;5086998;28;20509;-69
2023/09/01 01:47:08;;;;;;;11.80;6.70;;;13.90;99.90;;;13.76;100.00;97814.63;5091659;28;20873;-68
2023/09/01 01:49:36;;;;;;;7.80;6.53;;;14.00;99.90;;;13.63;100.00;97807.59;5089974;28;20443;-69
2023/09/01 01:52:03;;;;;;;9.90;7.00;;;13.90;99.90;;;13.57;100.00;97812.09;5090071;28;20447;-69
2023/09/01 01:54:31;;;;;;;8.30;5.67;;;13.90;99.90;;;13.67;100.00;97811.47;5090772;28;20447;-70
2023/09/01 01:57:00;;;;;;;8.00;6.90;;;14.00;99.90;;;13.63;100.00;97818.44;5092898;28;20451;-70
2023/09/01 01:59:27;;;;;;;11.70;7.10;;;13.90;99.90;;;13.43;100.00;97816.94;5078140;28;20545;-69
2023/09/01 02:01:55;;;;;;;13.57;6.33;;;13.80;99.90;;;13.44;100.00;97810.47;5101279;28;20483;-68
2023/09/01 02:04:22;;;;;;;8.50;6.57;;;13.80;99.90;;;13.42;100.00;97801.69;5092180;28;20998;-70
2023/09/01 02:06:49;;;;;;;11.00;8.03;;;13.80;99.90;;;13.42;100.00;97804.41;5090028;28;20509;-69
2023/09/01 02:09:17;;;;;;;10.30;6.73;;;13.80;99.90;;;13.40;100.00;97798.38;5081048;28;20437;-70
2023/09/01 02:11:44;;;;;;;6.87;6.00;;;13.80;99.90;;;13.34;100.00;97788.50;5084670;28;20452;-70
2023/09/01 02:14:12;;;;;;;8.50;6.40;;;13.70;99.90;;;13.35;100.00;97795.56;5092165;28;20587;-70
2023/09/01 02:16:40;;;;;;;8.10;6.80;;;13.70;99.90;;;13.38;100.00;97789.66;5092307;28;20450;-68
2023/09/01 02:19:09;;;;;;;8.00;6.60;;;13.70;99.90;;;13.36;100.00;97797.22;5099037;28;20946;-69
2023/09/01 02:21:36;;;;;;;7.70;6.17;;;13.70;99.90;;;13.52;100.00;97798.41;5078941;28;21032;-69
2023/09/01 02:24:05;;;;;;;7.10;6.50;;;13.80;99.90;;;13.39;100.00;97803.00;5090389;28;20484;-69
2023/09/01 02:26:33;;;;;;;8.43;6.67;;;13.80;99.90;;;13.52;100.00;97795.69;5091627;28;20567;-71
2023/09/01 02:29:00;;;;;;;8.10;6.87;;;13.80;99.90;;;13.48;100.00;97794.50;5092000;28;20459;-69
2023/09/01 02:31:28;;;;;;;7.47;6.77;;;13.80;99.90;;;13.27;100.00;97792.19;5090761;28;20438;-69
2023/09/01 02:33:55;;;;;;;7.10;6.30;;;13.70;99.90;;;13.24;100.00;97789.94;5091593;28;20444;-70
2023/09/01 02:36:26;;;;;;;7.83;7.00;;;13.70;99.90;;;13.29;100.00;97798.19;5090063;28;20512;-69
2023/09/01 02:38:53;;;;;;;7.47;6.67;;;13.60;99.90;;;13.33;100.00;97784.94;5089035;28;20480;-70
2023/09/01 02:41:21;;;;;;;9.77;6.50;;;13.70;99.90;;;12.87;100.00;97714.28;5091274;28;20448;-70
2023/09/01 02:43:49;;;;;;;8.00;7.20;;;13.70;99.90;;;13.31;100.00;97787.09;5091333;28;20451;-70
2023/09/01 02:46:16;;;;;;;7.37;5.80;;;13.70;99.90;;;13.27;100.00;97781.34;5093525;28;20447;-69
2023/09/01 02:48:45;;;;;;;9.43;6.33;;;13.70;99.90;;;13.32;100.00;97777.88;5091669;28;20450;-70
2023/09/01 02:51:12;;;;;;;10.30;6.23;;;13.70;99.90;;;13.34;100.00;97783.09;5091377;28;20462;-70
2023/09/01 02:53:40;;;;;;;6.73;5.33;;;13.70;99.90;;;13.25;100.00;97783.44;5089225;28;20912;-70
2023/09/01 02:56:07;;;;;;;6.53;5.93;;;13.70;99.90;;;13.38;100.00;97786.97;5089954;28;20439;-71
2023/09/01 02:58:34;;;;;;;8.90;6.60;;;13.70;99.90;;;13.38;100.00;97784.25;5091455;28;20459;-70
2023/09/01 03:01:07;;;;;;;6.63;5.50;;;13.70;99.90;;;13.22;100.00;97781.22;5091394;28;20446;-69
2023/09/01 03:03:35;;;;;;;6.40;5.80;;;13.70;99.90;;;12.99;100.00;97785.59;5089489;28;20499;-70
2023/09/01 03:06:05;;;;;;;6.63;5.97;;;13.50;99.90;;;13.03;100.00;97781.34;5090975;28;20458;-69
2023/09/01 03:08:32;;;;;;;9.10;6.03;;;13.50;99.90;;;13.14;100.00;97778.88;5085887;28;20454;-69
2023/09/01 03:10:59;;;;;;;8.50;6.40;;;13.50;99.90;;;13.20;100.00;97777.91;5090964;28;20480;-70
2023/09/01 03:13:27;;;;;;;7.93;6.00;;;13.50;99.90;;;13.29;100.00;97771.06;5093100;28;20546;-69
2023/09/01 03:15:55;;;;;;;10.40;6.50;;;13.60;99.90;;;13.20;100.00;97772.47;5091143;28;20509;-69
2023/09/01 03:18:23;;;;;;;9.73;6.83;;;13.50;99.90;;;13.15;100.00;97780.53;5090790;28;20446;-70
2023/09/01 03:20:52;;;;;;;7.63;6.83;;;13.60;99.90;;;13.20;100.00;97767.06;5086282;28;20443;-69
2023/09/01 03:23:21;;;;;;;7.90;7.07;;;13.60;99.90;;;13.23;100.00;97766.56;5086723;28;20947;-70
2023/09/01 03:25:55;;;;;;;8.60;6.07;;;13.50;99.90;;;13.21;100.00;97760.56;5091098;28;20505;-70
2023/09/01 03:28:22;;;;;;;8.40;6.60;;;13.60;99.90;;;13.23;100.00;97758.44;5089415;28;20439;-72
2023/09/01 03:30:49;;;;;;;8.17;6.40;;;13.60;99.90;;;13.06;100.00;97708.72;5090235;28;20548;-70
2023/09/01 03:33:17;;;;;;;7.60;6.37;;;13.60;99.90;;;13.36;100.00;97751.09;5088789;28;20475;-70
2023/09/01 03:35:44;;;;;;;7.80;5.60;;;13.70;99.90;;;13.29;100.00;97753.94;5091228;28;20449;-71
2023/09/01 03:38:11;;;;;;;5.60;5.10;;;13.60;99.90;;;13.31;100.00;97758.09;5090513;28;20648;-70
2023/09/01 03:40:40;;;;;;;7.70;6.50;;;13.60;99.90;;;13.23;100.00;97750.31;5089483;28;20995;-69
2023/09/01 03:43:07;;;;;;;6.43;5.63;;;13.60;99.90;;;13.32;100.00;97756.19;5090025;28;20455;-70
2023/09/01 03:45:35;;;;;;;7.03;6.33;;;13.60;99.90;;;13.38;100.00;97754.41;5089232;28;21011;-70
2023/09/01 03:48:02;;;;;;;9.40;5.77;;;13.70;99.90;;;13.21;100.00;97757.84;5094960;28;20448;-70
2023/09/01 03:50:29;;;;;;;6.73;5.50;;;13.60;99.90;;;13.32;100.00;97751.59;5090087;28;20463;-70
2023/09/01 03:52:57;;;;;;;7.23;6.60;;;13.60;99.90;;;13.35;100.00;97761.16;5084256;28;20455;-71
2023/09/01 03:55:24;;;;;;;8.17;6.37;;;13.70;99.90;;;13.19;100.00;97760.00;5088921;28;20459;-70
2023/09/01 03:57:53;;;;;;;10.23;6.97;;;13.60;99.90;;;13.24;100.00;97751.13;5090716;28;20953;-71
2023/09/01 04:00:20;;;;;;;7.17;6.33;;;13.60;99.90;;;13.22;100.00;97756.78;5090221;28;20500;-71
2023/09/01 04:02:47;;;;;;;6.90;6.27;;;13.60;99.90;;;13.29;100.00;97751.22;5087209;28;20517;-70
2023/09/01 04:05:14;;;;;;;7.77;6.20;;;13.60;99.90;;;13.25;100.00;97736.50;5085215;28;20465;-71
2023/09/01 04:07:42;;;;;;;7.40;6.40;;;13.60;99.90;;;13.39;100.00;97745.19;5089632;28;20449;-70
2023/09/01 04:10:09;;;;;;;7.20;6.40;;;13.70;99.90;;;13.00;100.00;97686.09;5089059;28;20526;-70
2023/09/01 04:12:37;;;;;;;5.90;5.30;;;13.70;99.90;;;13.39;100.00;97753.31;5089883;28;20546;-69
2023/09/01 04:15:07;;;;;;;8.50;6.33;;;13.70;99.90;;;13.44;100.00;97761.63;5089141;28;20857;-69
2023/09/01 04:17:34;;;;;;;6.27;5.40;;;13.80;99.90;;;13.50;100.00;97760.66;5088864;28;20447;-70
2023/09/01 04:20:01;;;;;;;8.00;5.80;;;13.80;99.90;;;13.40;100.00;97758.53;5086858;28;20452;-71
2023/09/01 04:22:28;;;;;;;6.23;5.60;;;13.80;99.90;;;13.40;100.00;97757.69;5088150;28;20459;-70
2023/09/01 04:24:56;;;;;;;6.90;5.57;;;13.80;99.90;;;13.37;100.00;97752.75;5091921;28;20944;-70
2023/09/01 04:27:23;;;;;;;7.00;6.30;;;13.70;99.90;;;13.39;100.00;97758.75;5093872;28;20809;-71
2023/09/01 04:29:51;;;;;;;6.23;5.63;;;13.80;99.90;;;13.50;100.00;97743.56;5094526;28;20450;-70
2023/09/01 04:32:19;;;;;;;7.13;6.43;;;13.80;99.90;;;13.44;100.00;97753.47;5085871;28;20443;-70
2023/09/01 04:34:46;;;;;;;7.43;6.37;;;13.80;99.90;;;13.45;100.00;97752.41;5094315;28;20438;-69
2023/09/01 04:37:13;;;;;;;7.47;6.77;;;13.80;99.90;;;13.42;100.00;97744.69;5093933;28;20454;-70
2023/09/01 04:39:40;;;;;;;6.47;5.50;;;13.80;99.90;;;13.38;100.00;97743.53;5093255;28;20989;-69
2023/09/01 04:42:08;;;;;;;11.00;7.03;;;13.80;99.90;;;13.41;100.00;97745.78;5093185;28;20447;-71
2023/09/01 04:44:35;;;;;;;7.37;6.67;;;13.80;99.90;;;13.50;100.00;97755.22;5094134;28;21014;-69
2023/09/01 04:47:03;;;;;;;6.80;6.10;;;13.80;99.90;;;13.61;100.00;97745.38;5091924;28;20462;-69
2023/09/01 04:49:31;;;;;;;7.57;6.37;;;13.80;99.90;;;13.48;100.00;97743.78;5092549;28;20938;-70
2023/09/01 04:51:59;;;;;;;9.00;7.10;;;13.80;99.90;;;13.61;100.00;97750.81;5092986;28;20783;-71
2023/09/01 04:54:26;;;;;;;6.70;6.07;;;13.90;99.90;;;13.51;100.00;97739.78;5091896;28;20927;-71
2023/09/01 04:56:54;;;;;;;7.00;6.20;;;13.90;99.90;;;13.54;100.00;97740.09;5093365;28;20442;-70
2023/09/01 04:59:24;;;;;;;10.33;7.17;;;13.90;99.90;;;13.46;100.00;97744.00;5085246;28;20450;-70
2023/09/01 05:01:51;;;;;;;8.77;6.20;;;13.90;99.90;;;13.58;100.00;97740.44;5094768;28;20482;-68
2023/09/01 05:04:19;;;;;;;7.70;6.97;;;13.90;99.90;;;13.70;100.00;97749.38;5090999;28;20456;-70
2023/09/01 05:06:49;;;;;;;10.80;7.17;;;14.00;99.90;;;13.66;100.00;97748.22;5092001;28;20481;-69
2023/09/01 05:09:17;;;;;;;9.30;6.33;;;14.00;99.90;;;13.74;100.00;97757.88;5091391;28;20920;-70
2023/09/01 05:11:44;;;;;;;8.90;6.40;;;14.00;99.90;;;13.82;100.00;97757.47;5091429;28;20509;-70
2023/09/01 05:14:12;;;;;;;8.47;7.17;;;14.10;99.90;;;13.81;100.00;97763.16;5093461;28;20454;-70
2023/09/01 05:16:39;;;;;;;10.40;7.27;;;14.10;99.90;;;13.70;100.00;97764.81;5090223;28;20452;-70
2023/09/01 05:19:06;;;;;;;7.17;6.50;;;14.10;99.90;;;13.49;100.00;97756.28;5093139;28;20439;-70
2023/09/01 05:21:33;;;;;;;6.90;6.00;;;13.90;99.90;;;13.57;100.00;97744.22;5090432;28;20452;-68
2023/09/01 05:24:07;;;;;;;8.40;7.60;;;14.00;99.90;;;13.80;100.00;97765.03;5092913;28;20447;-70
2023/09/01 05:26:34;;;;;;;7.67;6.87;;;14.10;99.90;;;13.95;100.00;97764.50;5091346;28;20524;-70
2023/09/01 05:29:01;;;;;;;8.93;7.70;;;14.20;99.90;;;13.98;100.00;97760.47;5092216;28;20463;-70
2023/09/01 05:31:28;;;;;;;8.03;7.23;;;14.20;99.90;;;14.06;100.00;97751.94;5092150;28;20448;-71
2023/09/01 05:33:55;;;;;;;7.10;6.30;;;14.30;99.90;;;13.86;100.00;97752.38;5093211;28;20495;-68
2023/09/01 05:36:23;;;;;;;8.30;7.50;;;14.20;99.90;;;13.98;100.00;97757.75;5091035;28;20472;-69
2023/09/01 05:38:50;;;;;;;7.93;6.70;;;14.20;99.90;;;14.07;100.00;97759.00;5093211;28;20473;-68
2023/09/01 05:41:18;;;;;;;8.20;6.83;;;14.30;99.90;;;14.04;100.00;97748.63;5092618;28;20500;-70
2023/09/01 05:43:46;;;;;;;7.70;6.80;;;14.30;99.90;;;14.01;100.00;97757.25;5092029;28;20546;-69
2023/09/01 05:46:13;;;;;;;7.40;6.67;;;14.30;99.90;;;14.10;100.00;97758.50;5083850;28;20554;-69
2023/09/01 05:48:40;;;;;;;7.80;7.10;;;14.30;99.90;;;14.06;100.00;97751.94;5092775;28;20459;-69
2023/09/01 05:51:07;;;;;;;7.67;7.03;;;14.40;99.90;;;14.12;100.00;97758.28;5091177;28;20950;-69
2023/09/01 05:53:34;;;;;;;8.93;8.03;;;14.40;99.90;;;14.27;100.00;97763.13;5085746;28;20451;-70
2023/09/01 05:56:02;;;;;;;12.97;7.50;;;14.40;99.90;;;14.25;100.00;97763.38;5097194;27;20924;-69
2023/09/01 05:58:30;;;;;;;7.87;7.07;;;14.50;99.90;;;14.41;100.00;97775.34;5091168;28;20466;-70
2023/09/01 06:00:57;;;;;;;10.43;7.10;;;14.50;99.90;;;14.36;100.00;97767.09;5092037;28;20447;-70
2023/09/01 06:03:25;;;;;;;8.40;7.33;;;14.60;99.90;;;14.29;100.00;97771.84;5089453;28;20452;-71
2023/09/01 06:05:52;;;;;;;7.70;7.00;;;14.50;99.90;;;14.39;100.00;97776.63;5091949;28;20536;-69
2023/09/01 06:08:19;;;;;;;7.87;7.03;;;14.60;99.90;;;14.33;100.00;97778.47;5092449;28;20633;-70
2023/09/01 06:10:46;;;;;;;8.43;7.60;;;14.60;99.90;;;14.41;100.00;97777.25;5092215;28;20455;-69
2023/09/01 06:13:13;;;;;;;8.17;7.47;;;14.60;99.90;;;14.36;100.00;97777.13;5091376;28;20549;-70
2023/09/01 06:15:42;;;;;;;8.80;7.63;;;14.60;99.90;;;14.39;100.00;97773.91;5090951;28;20616;-69
2023/09/01 06:18:09;;;;;;;8.00;7.30;;;14.60;99.90;;;14.47;100.00;97778.13;5088413;28;20463;-69
2023/09/01 06:20:36;;;;;;;8.13;7.33;;;14.70;99.90;;;14.52;100.00;97787.19;5080382;28;20520;-69
2023/09/01 06:23:04;;;;;;;11.10;7.17;;;14.70;99.90;;;14.55;100.00;97777.72;5086939;28;20451;-71
2023/09/01 06:25:31;;;;;;;9.73;8.63;;;14.80;99.90;;;14.63;100.00;97782.72;5090455;28;20962;-70
2023/09/01 06:27:58;;;;;;;8.97;7.40;;;14.90;99.90;;;14.70;100.00;97797.00;5091855;28;20493;-68
2023/09/01 06:30:25;;;;;;;8.20;7.40;;;14.90;99.90;;;14.52;100.00;97797.25;5091638;28;20480;-69
2023/09/01 06:32:53;;;;;;;8.60;6.73;;;14.90;99.90;;;14.52;100.00;97794.53;5091146;28;20508;-70
2023/09/01 06:35:21;;;;;;;7.37;6.30;;;14.80;99.90;;;14.68;100.00;97793.72;5091496;28;20459;-70
2023/09/01 06:37:48;;;;;;;7.63;6.97;;;14.90;99.90;;;14.70;100.00;97788.00;5099471;28;20496;-71
2023/09/01 06:40:15;;;;;;;8.43;7.23;;;14.90;99.90;;;14.91;100.00;97799.25;5107127;28;20500;-69
2023/09/01 06:42:42;;;;;;;7.20;6.60;;;15.10;99.90;;;14.97;100.00;97792.78;5096067;28;20464;-70
2023/09/01 06:45:10;;;;;;;8.20;6.83;;;15.20;99.90;;;15.16;100.00;97785.19;5087596;28;20947;-71
2023/09/01 06:47:37;;;;;;;8.00;7.20;;;15.30;99.90;;;15.26;100.00;97790.78;5091060;28;20463;-70
2023/09/01 06:50:07;;;;;;;8.23;7.17;;;15.50;99.90;;;15.42;100.00;97791.78;5090548;28;20452;-70
2023/09/01 06:52:34;;;;;;;7.67;6.97;;;15.50;99.90;;;15.13;100.00;97793.84;5079341;28;20448;-71
2023/09/01 06:55:01;;;;;;;7.37;6.60;;;15.50;99.80;;;14.89;100.00;97736.13;5090493;28;20436;-70
2023/09/01 06:57:28;;;;;;;8.00;6.93;;;15.40;99.90;;;15.29;100.00;97794.88;5088645;28;20452;-70
2023/09/01 06:59:56;;;;;;;7.70;6.90;;;15.50;99.90;;;15.36;100.00;97795.53;5088817;28;20454;-69
2023/09/01 07:02:23;;;;;;;8.83;7.30;;;15.50;99.90;;;15.32;100.00;97799.00;5070496;28;20449;-69
2023/09/01 07:04:51;;;;;;;7.27;5.80;;;15.50;99.90;;;15.44;100.00;97797.78;5090008;28;20444;-71
2023/09/01 07:07:20;;;;;;;7.80;7.10;;;15.60;99.90;;;15.67;99.37;97800.53;5090980;28;20543;-71
2023/09/01 07:09:47;;;;;;;9.27;6.73;;;15.70;99.90;;;16.01;98.00;97800.41;5091307;28;20447;-70
2023/09/01 07:12:14;;;;;;;9.87;7.03;;;16.00;99.60;;;16.18;95.75;97799.47;5089478;28;20444;-70
2023/09/01 07:14:41;;;;;;;10.93;6.90;;;16.30;97.50;;;16.12;97.43;97806.78;5091285;28;20455;-70
2023/09/01 07:17:11;;;;;;;10.73;6.60;;;16.30;97.70;;;16.14;96.59;97805.44;5091069;28;20459;-70
2023/09/01 07:19:38;;;;;;;6.40;5.80;;;16.40;97.00;;;16.41;93.23;97798.34;5082114;28;20457;-71
2023/09/01 07:22:06;;;;;;;7.30;6.50;;;16.50;96.00;;;16.38;93.47;97807.03;5089395;28;20469;-69
2023/09/01 07:24:35;;;;;;;7.50;6.27;;;16.60;95.30;;;15.87;96.51;97748.19;5090548;28;20440;-70
2023/09/01 07:27:03;;;;;;;6.87;6.27;;;16.50;96.40;;;16.67;93.35;97810.28;5090755;28;20470;-70
2023/09/01 07:29:30;;;;;;;6.40;5.90;;;16.70;96.10;;;16.43;95.88;97807.88;5089551;28;20529;-70
2023/09/01 07:31:59;;;;;;;8.80;6.70;;;16.70;96.50;;;16.39;95.43;97806.75;5088940;28;20516;-70
2023/09/01 07:34:26;;;;;;;10.00;6.80;;;16.70;95.70;;;16.78;92.35;97813.09;5089057;28;20517;-70
2023/09/01 07:36:54;;;;;;;9.10;6.10;;;17.00;95.10;;;17.17;90.57;97829.22;5085775;28;20459;-70
2023/09/01 07:39:21;;;;;;;7.80;7.00;;;17.20;95.00;;;17.29;91.78;97826.31;5087282;28;20474;-71
2023/09/01 07:41:49;;;;;;;7.77;6.37;;;17.30;95.00;;;17.31;91.08;97820.56;5089730;28;20560;-71
2023/09/01 07:44:17;;;;;;;6.87;6.17;;;17.40;94.70;;;16.98;92.47;97818.69;5090242;28;20457;-71
2023/09/01 07:46:45;;;;;;;5.47;4.90;;;17.30;94.60;;;17.35;90.71;97821.66;5082661;28;20468;-71
2023/09/01 07:49:12;;;;;;;6.50;5.90;;;17.50;94.30;;;17.05;90.95;97768.53;5085793;28;20456;-70
2023/09/01 07:51:40;;;;;;;7.63;5.93;;;17.60;94.20;;;17.06;92.29;97824.75;5087604;28;20452;-70
2023/09/01 07:54:07;;;;;;;7.40;5.60;;;17.50;94.00;;;17.65;88.69;97825.63;5090638;28;20437;-69
2023/09/01 07:56:34;;;;;;;6.90;6.00;;;17.70;93.80;;;17.66;89.02;97827.28;5088826;28;20498;-70
2023/09/01 07:59:04;;;;;;;5.10;4.60;;;17.80;93.60;;;17.97;87.82;97824.69;5089803;28;20868;-70
2023/09/01 08:01:31;;;;;;;5.03;4.53;;;18.00;93.60;;;17.96;87.68;97823.03;5087717;28;20949;-69
2023/09/01 08:03:59;;;;;;;7.20;5.00;;;18.00;93.30;;;17.72;88.04;97831.69;5089126;28;20446;-71
2023/09/01 08:06:29;;;;;;;5.17;4.07;;;18.00;93.30;;;17.45;90.21;97832.66;5094295;28;20469;-70
2023/09/01 08:08:56;;;;;;;4.87;4.37;;;17.80;93.40;;;17.87;89.18;97832.84;5093108;28;20447;-69
2023/09/01 08:11:24;;;;;;;5.27;3.80;;;18.00;93.80;;;17.75;89.05;97839.34;5092548;28;20942;-70
2023/09/01 08:13:51;;;;;;;4.67;4.27;;;18.00;93.60;;;17.82;89.18;97837.22;5094371;28;20498;-71
2023/09/01 08:16:20;;;;;;;6.93;4.40;;;18.00;93.90;;;17.81;90.16;97837.47;5092930;28;20811;-71
2023/09/01 08:18:48;;;;;;;5.80;4.97;;;18.00;93.90;;;17.70;91.92;97842.06;5093097;28;20540;-70
2023/09/01 08:21:15;;;;;;;4.70;4.30;;;17.90;94.70;;;17.28;94.46;97849.19;5093741;28;20447;-69
2023/09/01 08:23:42;;;;;;;4.70;4.17;;;17.80;94.90;;;17.33;95.44;97851.97;5092313;28;20449;-69
2023/09/01 08:26:10;;;;;;;5.20;4.80;;;17.70;95.50;;;17.66;93.72;97854.59;5094170;28;20556;-69
2023/09/01 08:28:37;;;;;;;5.00;4.33;;;17.80;95.70;;;17.47;93.65;97846.06;5093110;28;20473;-70
2023/09/01 08:31:05;;;;;;;5.40;4.43;;;17.90;95.40;;;17.62;95.36;97854.31;5091895;28;20463;-70
2023/09/01 08:33:33;;;;;;;5.10;3.97;;;18.00;95.80;;;18.03;92.27;97855.59;5107324;28;20485;-71
2023/09/01 08:36:03;;;;;;;4.50;3.90;;;18.10;95.20;;;18.08;92.40;97853.69;5091877;28;20445;-70
2023/09/01 08:38:30;;;;;;;3.10;2.80;;;18.20;95.20;;;17.72;94.81;97861.75;5092431;28;20876;-69
2023/09/01 08:40:59;;;;;;;2.80;2.60;;;18.10;95.40;;;17.54;94.29;97820.16;5093513;28;20455;-70
2023/09/01 08:43:28;;;;;;;7.07;2.87;;;18.00;96.00;;;18.12;92.57;97862.19;5081272;28;20772;-69
2023/09/01 08:45:57;;;;;;;2.27;2.07;;;18.20;95.80;;;18.09;91.45;97843.59;5093731;28;20479;-69
2023/09/01 08:48:24;;;;;;;2.47;2.27;;;18.20;95.20;;;18.09;92.17;97866.28;5092109;28;20443;-69
2023/09/01 08:50:53;;;;;;;3.50;2.27;;;18.30;95.10;;;18.16;93.29;97862.50;5093834;28;20449;-70
2023/09/01 08:53:22;;;;;;;2.20;2.00;;;18.30;95.90;;;18.21;92.22;97859.75;5091551;28;20760;-71
2023/09/01 08:55:55;;;;;;;3.23;2.63;;;18.30;95.40;;;18.40;91.27;97863.63;5093956;28;20463;-70
2023/09/01 08:58:23;;;;;;;2.40;2.20;;;18.40;95.50;;;18.70;88.01;97869.44;5093311;28;20511;-69
2023/09/01 09:00:50;;;;;;;2.83;2.50;;;18.60;94.40;;;18.75;88.04;97871.34;5093611;28;20551;-70
2023/09/01 09:03:19;;;;;;;2.57;2.10;;;18.80;94.20;;;18.86;87.21;97869.44;5102068;28;20465;-70
2023/09/01 09:05:47;;;;;;;4.93;3.57;;;18.80;93.80;;;18.55;86.29;97805.41;5093244;28;20944;-70
2023/09/01 09:08:15;;;;;;;3.57;3.03;;;19.00;93.50;;;19.01;86.56;97874.94;5092557;28;20444;-71
2023/09/01 09:10:46;;;;;;;3.73;2.60;;;19.00;93.40;;;19.20;84.92;97872.47;5090720;28;20453;-70
2023/09/01 09:13:22;;;;;;;3.10;2.50;;;19.10;93.30;;;19.19;85.67;97872.72;5091393;28;20450;-69
2023/09/01 09:16:10;;;;;;;2.57;2.37;;;19.20;93.20;;;18.97;85.86;97865.59;5089661;28;20852;-70
2023/09/01 09:18:40;;;;;;;4.30;2.50;;;19.20;93.10;;;19.15;84.81;97866.97;5093426;28;20453;-70
2023/09/01 09:21:24;;;;;;;3.83;2.47;;;19.30;92.90;;;19.04;84.53;97868.09;5090803;28;20443;-71
2023/09/01 09:23:55;;;;;;;2.80;2.60;;;19.30;92.60;;;19.11;86.03;97871.38;5091756;28;20508;-71
2023/09/01 09:26:26;;;;;;;3.77;2.60;;;19.30;92.90;;;18.92;88.33;97871.91;5092460;27;20467;-71
2023/09/01 09:28:54;;;;;;;3.23;2.73;;;19.20;93.30;;;18.91;88.15;97872.16;5101826;28;20451;-70
2023/09/01 09:31:33;;;;;;;4.40;2.70;;;19.20;93.40;;;19.05;86.65;97889.72;5079359;28;20457;-71
2023/09/01 09:34:13;;;;;;;4.13;2.87;;;19.20;93.20;;;19.16;88.80;97879.56;5093090;28;20456;-69
2023/09/01 09:36:41;;;;;;;5.40;3.10;;;19.20;94.10;;;19.00;89.46;97881.50;5093439;28;20445;-70
2023/09/01 09:39:22;;;;;;;3.40;2.80;;;19.10;94.50;;;18.60;93.09;97886.66;5079954;28;20456;-70
2023/09/01 09:41:50;;;;;;;3.90;2.43;;;18.80;95.10;;;18.88;92.44;97884.50;5085451;28;20473;-69
2023/09/01 09:44:27;;;;;;;3.53;3.03;;;18.80;96.50;;;18.85;91.63;97879.53;5091723;28;20501;-69
2023/09/01 09:46:55;;;;;;;3.27;2.97;;;19.00;95.60;;;19.21;90.15;97876.84;5092775;28;20467;-68
2023/09/01 09:49:24;;;;;;;3.40;2.77;;;19.10;95.30;;;19.68;87.36;97874.00;5092682;28;20523;-69
2023/09/01 09:51:53;;;;;;;3.50;3.20;;;19.50;94.50;;;19.62;87.35;97870.47;5092099;28;20450;-70
2023/09/01 09:54:23;;;;;;;5.03;2.80;;;19.90;93.60;;;20.45;85.05;97869.28;5092310;28;20448;-71
2023/09/01 09:56:52;;;;;;;3.73;3.23;;;20.30;93.60;;;20.57;84.23;97878.00;5092938;28;20478;-70
2023/09/01 09:59:25;;;;;;;3.33;3.07;;;20.70;93.10;;;20.59;82.17;97875.78;5098870;28;20444;-71
2023/09/01 10:01:59;;;;;;;2.43;2.23;;;20.90;92.10;;;21.44;79.32;97883.88;5090991;28;20489;-70
2023/09/01 10:04:27;;;;;;;1.73;1.63;;;21.30;92.30;;;21.30;78.42;97880.19;5092267;28;20955;-70
2023/09/01 10:06:56;;;;;;;2.60;2.37;;;21.40;91.70;;;21.20;79.32;97889.34;5092348;28;20976;-70
2023/09/01 10:09:25;;;;;;;3.13;2.00;;;21.30;91.60;;;21.45;78.07;97882.78;5092475;28;20462;-70
2023/09/01 10:11:54;;;;;;;5.70;2.43;;;21.50;91.70;;;21.23;79.12;97873.09;5091402;28;20444;-71
2023/09/01 10:14:23;;;;;;;4.60;2.13;;;21.40;91.40;;;21.16;79.49;97878.13;5092024;28;20456;-69
2023/09/01 10:16:51;;;;;;;3.40;2.40;;;21.40;91.40;;;22.03;74.58;97872.00;5092296;28;20603;-69
2023/09/01 10:19:23;;;;;;;3.10;2.00;;;21.90;91.10;;;22.19;72.52;97870.69;5090740;28;20445;-69
2023/09/01 10:21:50;;;;;;;5.47;2.10;;;22.10;90.60;;;22.29;73.06;97869.72;5103926;28;20511;-70